createdAt,value
2018-07-20T00:04:09.337Z,100994.78
2018-07-20T00:09:04.242Z,100997.23
2018-07-20T00:13:59.667Z,100998.78
2018-07-20T00:18:54.699Z,100992.30
2018-07-20T00:23:49.634Z,100984.10
2018-07-20T00:28:44.828Z,100980.13
2018-07-20T00:33:39.751Z,100975.63
2018-07-20T00:38:34.766Z,100977.48
2018-07-20T00:43:29.331Z,100979.40
2018-07-20T00:48:24.281Z,100975.22
2018-07-20T00:53:19.006Z,100974.22
2018-07-20T00:58:13.496Z,100974.55
2018-07-20T01:03:08.005Z,100970.50
2018-07-20T01:08:02.665Z,100967.32
2018-07-20T01:12:57.181Z,100965.95
2018-07-20T01:17:51.484Z,100961.05
2018-07-20T01:22:46.149Z,100966.05
2018-07-20T01:27:40.921Z,100967.49
2018-07-20T01:32:35.416Z,100966.73
2018-07-20T01:37:30.077Z,100963.13
2018-07-20T01:42:24.604Z,100962.43
2018-07-20T01:47:19.087Z,100957.75
2018-07-20T01:52:13.597Z,100958.42
2018-07-20T01:57:08.100Z,100954.08
2018-07-20T02:02:02.931Z,100956.92
2018-07-20T02:06:57.575Z,100959.20
2018-07-20T02:11:52.320Z,100962.68
2018-07-20T02:16:48.046Z,100956.64
2018-07-20T02:21:42.494Z,100962.16
2018-07-20T02:26:37.162Z,100951.75
2018-07-20T02:31:31.697Z,100952.27
2018-07-20T02:36:26.348Z,100945.21
2018-07-20T02:41:22.236Z,100947.55
2018-07-20T02:46:16.731Z,100947.22
2018-07-20T02:51:11.319Z,100944.45
2018-07-20T02:56:06.078Z,100947.64
2018-07-20T03:01:00.712Z,100947.52
2018-07-20T03:05:55.628Z,100944.63
2018-07-20T03:10:50.332Z,100952.44
2018-07-20T03:15:44.819Z,100949.98
2018-07-20T03:20:39.323Z,100947.56
2018-07-20T03:25:33.905Z,100951.96
2018-07-20T03:30:28.454Z,100953.78
2018-07-20T03:35:23.098Z,100951.58
2018-07-20T03:40:17.614Z,100954.38
2018-07-20T03:45:12.198Z,100946.09
2018-07-20T03:50:06.915Z,100939.14
2018-07-20T03:55:01.388Z,100935.94
2018-07-20T03:59:55.924Z,100928.47
2018-07-20T04:04:51.078Z,100923.70
2018-07-20T04:09:45.765Z,100915.98
2018-07-20T04:14:40.264Z,100919.53
2018-07-20T04:19:34.758Z,100902.59
2018-07-20T04:24:29.852Z,100919.05
2018-07-20T04:29:24.647Z,100917.00
2018-07-20T04:34:19.204Z,100912.43
2018-07-20T04:39:15.134Z,100907.86
2018-07-20T04:44:09.640Z,100907.45
2018-07-20T04:49:04.095Z,100913.02
2018-07-20T04:53:58.744Z,100907.20
2018-07-20T04:58:53.657Z,100908.63
2018-07-20T05:03:48.538Z,100909.57
2018-07-20T05:08:43.325Z,100919.18
2018-07-20T05:13:39.592Z,100911.63
2018-07-20T05:18:34.036Z,100911.20
2018-07-20T05:23:28.331Z,100923.03
2018-07-20T05:28:22.598Z,100921.37
2018-07-20T05:33:17.313Z,100915.75
2018-07-20T05:38:12.387Z,100907.89
2018-07-20T05:43:07.150Z,100912.91
2018-07-20T05:48:01.749Z,100914.11
2018-07-20T05:52:56.605Z,100913.08
2018-07-20T05:57:50.803Z,100912.31
2018-07-20T06:02:45.411Z,100910.73
2018-07-20T06:07:39.959Z,100905.90
2018-07-20T06:12:34.778Z,100898.71
2018-07-20T06:17:29.627Z,100900.79
2018-07-20T06:22:24.348Z,100904.73
2018-07-20T06:27:19.210Z,100897.09
2018-07-20T06:32:13.851Z,100902.97
2018-07-20T06:37:08.648Z,100903.59
2018-07-20T06:42:03.602Z,100903.83
2018-07-20T06:46:58.360Z,100901.00
2018-07-20T06:51:53.576Z,100901.03
2018-07-20T06:56:48.133Z,100896.82
2018-07-20T07:01:43.090Z,100903.11
2018-07-20T07:06:38.256Z,100907.00
2018-07-20T07:11:34.067Z,100897.10
2018-07-20T07:16:29.522Z,100892.52
2018-07-20T07:21:24.373Z,100900.49
2018-07-20T07:26:21.465Z,100899.17
2018-07-20T07:31:16.565Z,100891.50
2018-07-20T07:36:12.357Z,100886.04
2018-07-20T07:41:08.722Z,100888.89
2018-07-20T07:46:03.458Z,100895.66
2018-07-20T07:55:45.375Z,100890.53
2018-07-20T08:00:40.293Z,100882.96
2018-07-20T08:05:35.199Z,100883.95
2018-07-20T08:10:29.965Z,100882.07
2018-07-20T08:15:25.057Z,100872.59
2018-07-20T08:20:20.169Z,100869.01
2018-07-20T08:25:15.135Z,100869.36
2018-07-20T08:30:09.903Z,100861.78
2018-07-20T08:35:05.558Z,100859.50
2018-07-20T08:40:01.214Z,100865.72
2018-07-20T08:44:56.154Z,100849.33
2018-07-20T08:49:50.891Z,100849.89
2018-07-20T08:54:45.995Z,100848.73
2018-07-20T08:59:40.885Z,100851.38
2018-07-20T09:04:36.201Z,100848.30
2018-07-20T09:09:30.920Z,100840.87
2018-07-20T09:14:25.896Z,100845.02
2018-07-20T09:19:20.956Z,100838.50
2018-07-20T09:24:15.926Z,100839.42
2018-07-20T09:29:10.794Z,100834.61
2018-07-20T09:34:05.690Z,100837.68
2018-07-20T09:39:00.571Z,100834.89
2018-07-20T09:43:55.497Z,100824.65
2018-07-20T09:48:50.228Z,100823.66
2018-07-20T09:53:45.222Z,100818.66
2018-07-20T09:58:39.933Z,100808.09
2018-07-20T10:03:34.708Z,100803.73
2018-07-20T10:08:30.540Z,100790.07
2018-07-20T10:13:25.362Z,100784.88
2018-07-20T10:18:20.282Z,100789.36
2018-07-20T10:23:15.074Z,100779.34
2018-07-20T10:28:09.976Z,100772.97
2018-07-20T10:33:04.783Z,100774.48
2018-07-20T10:37:59.542Z,100763.77
2018-07-20T10:42:55.204Z,100760.31
2018-07-20T10:47:50.030Z,100761.62
2018-07-20T10:52:44.554Z,100753.72
2018-07-20T10:57:39.601Z,100756.58
2018-07-20T11:02:34.330Z,100747.51
2018-07-20T11:07:29.706Z,100745.79
2018-07-20T11:12:24.676Z,100739.80
2018-07-20T11:17:19.488Z,100736.89
2018-07-20T11:22:14.378Z,100730.20
2018-07-20T11:27:09.530Z,100724.95
2018-07-20T11:32:04.256Z,100720.23
2018-07-20T11:36:59.156Z,100716.42
2018-07-20T11:41:54.244Z,100718.41
2018-07-20T11:46:49.354Z,100712.88
2018-07-20T11:51:44.326Z,100712.65
2018-07-20T11:56:39.153Z,100699.57
2018-07-20T12:01:33.801Z,100697.33
2018-07-20T12:06:29.220Z,100688.77
2018-07-20T12:11:23.950Z,100685.70
2018-07-20T12:16:18.716Z,100676.86
2018-07-20T12:21:13.540Z,100664.52
2018-07-20T12:26:08.366Z,100665.20
2018-07-20T12:31:03.552Z,100656.00
2018-07-20T12:35:59.345Z,100662.77
2018-07-20T12:40:54.315Z,100656.77
2018-07-20T12:45:50.070Z,100650.20
2018-07-20T12:50:44.806Z,100649.17
2018-07-20T12:55:40.148Z,100653.41
2018-07-20T13:00:34.896Z,100644.98
2018-07-20T13:05:29.438Z,100638.95
2018-07-20T13:10:24.443Z,100633.48
2018-07-20T13:15:20.397Z,100637.13
2018-07-20T13:20:15.132Z,100633.13
2018-07-20T13:25:10.030Z,100631.05
2018-07-20T13:30:07.622Z,100636.00
2018-07-20T13:35:02.379Z,100634.40
2018-07-20T13:39:57.518Z,100615.92
2018-07-20T13:44:53.253Z,100609.84
2018-07-20T13:49:48.148Z,100605.03
2018-07-20T13:54:42.797Z,100593.30
2018-07-20T13:59:37.999Z,100588.69
2018-07-20T14:04:32.758Z,100589.02
2018-07-20T14:09:27.507Z,100581.06
2018-07-20T14:14:22.458Z,100584.84
2018-07-20T14:19:17.179Z,100562.50
2018-07-20T14:24:12.170Z,100560.48
2018-07-20T14:29:06.915Z,100556.23
2018-07-20T14:34:01.767Z,100552.64
2018-07-20T14:38:56.325Z,100549.44
2018-07-20T14:43:51.166Z,100541.45
2018-07-20T14:48:45.908Z,100538.66
2018-07-20T14:53:40.679Z,100534.17
2018-07-20T14:58:35.504Z,100530.62
2018-07-20T15:03:30.270Z,100523.36
2018-07-20T15:08:25.393Z,100529.45
2018-07-20T15:13:20.746Z,100525.28
2018-07-20T15:18:15.602Z,100524.40
2018-07-20T15:23:10.726Z,100521.33
2018-07-20T15:28:05.888Z,100517.54
2018-07-20T15:33:00.791Z,100510.36
2018-07-20T15:37:55.520Z,100516.08
2018-07-20T15:42:50.300Z,100508.07
2018-07-20T15:47:45.052Z,100509.26
2018-07-20T15:57:34.829Z,100507.23
2018-07-20T16:02:29.844Z,100504.63
2018-07-20T16:07:24.582Z,100502.58
2018-07-20T16:12:20.234Z,100497.59
2018-07-20T16:17:15.352Z,100495.73
2018-07-20T16:22:10.288Z,100497.32
2018-07-20T16:27:05.021Z,100495.72
2018-07-20T16:31:59.551Z,100493.90
2018-07-20T16:36:54.315Z,100494.64
2018-07-20T16:41:49.117Z,100485.53
2018-07-20T16:46:44.020Z,100482.27
2018-07-20T16:51:38.893Z,100482.51
2018-07-20T16:56:33.409Z,100482.34
2018-07-20T17:01:28.153Z,100481.57
2018-07-20T17:06:23.138Z,100483.55
2018-07-20T17:11:18.257Z,100485.48
2018-07-20T17:16:13.742Z,100488.61
2018-07-20T17:21:09.581Z,100490.84
2018-07-20T17:26:05.374Z,100491.14
2018-07-20T17:31:00.273Z,100489.94
2018-07-20T17:35:55.316Z,100499.22
2018-07-20T17:40:50.607Z,100501.53
2018-07-20T17:45:45.844Z,100502.30
2018-07-20T17:50:45.336Z,100508.27
2018-07-20T17:55:40.448Z,100515.30
2018-07-20T18:00:36.180Z,100513.06
2018-07-20T18:05:30.883Z,100523.88
2018-07-20T18:10:26.662Z,100534.77
2018-07-20T18:15:23.142Z,100536.58
2018-07-20T18:20:18.159Z,100544.72
2018-07-20T18:25:13.811Z,100538.41
2018-07-20T18:30:08.266Z,100542.23
2018-07-20T18:35:03.269Z,100536.75
2018-07-20T18:39:58.295Z,100527.22
2018-07-20T18:44:53.691Z,100525.31
2018-07-20T18:49:48.179Z,100523.59
2018-07-20T18:54:45.605Z,100524.27
2018-07-20T18:59:40.498Z,100517.47
2018-07-20T19:04:35.786Z,100513.62
2018-07-20T19:09:30.049Z,100505.73
2018-07-20T19:14:25.204Z,100505.70
2018-07-20T19:19:19.488Z,100507.92
2018-07-20T19:24:15.244Z,100512.86
2018-07-20T19:29:10.800Z,100529.34
2018-07-20T19:34:05.762Z,100523.27
2018-07-20T19:39:00.502Z,100529.38
2018-07-20T19:43:56.925Z,100526.50
2018-07-20T19:48:51.898Z,100530.39
2018-07-20T19:53:46.636Z,100542.44
2018-07-20T19:58:41.799Z,100545.52
2018-07-20T20:03:37.392Z,100551.97
2018-07-20T20:08:32.350Z,100544.53
2018-07-20T20:13:26.929Z,100545.22
2018-07-20T20:18:21.541Z,100542.88
2018-07-20T20:23:17.765Z,100543.56
2018-07-20T20:28:12.906Z,100536.84
2018-07-20T20:33:08.175Z,100531.31
2018-07-20T20:38:02.737Z,100530.56
2018-07-20T20:42:57.234Z,100540.09
2018-07-20T20:47:52.178Z,100539.46
2018-07-20T20:52:46.783Z,100537.80
2018-07-20T20:57:41.931Z,100540.19
2018-07-20T21:02:36.986Z,100537.98
2018-07-20T21:07:31.524Z,100545.24
2018-07-20T21:12:26.153Z,100539.52
2018-07-20T21:17:21.310Z,100546.95
2018-07-20T21:22:16.527Z,100540.70
2018-07-20T21:27:11.068Z,100530.39
2018-07-20T21:32:06.552Z,100538.86
2018-07-20T21:37:01.974Z,100537.73
2018-07-20T21:41:56.952Z,100536.38
2018-07-20T21:46:51.484Z,100535.39
2018-07-20T21:51:46.669Z,100540.98
2018-07-20T21:56:43.686Z,100535.61
2018-07-20T22:01:38.725Z,100541.87
2018-07-20T22:06:33.444Z,100551.52
2018-07-20T22:11:28.297Z,100555.42
2018-07-20T22:16:23.280Z,100552.05
2018-07-20T22:21:18.088Z,100546.50
2018-07-20T22:26:12.780Z,100545.83
2018-07-20T22:31:07.376Z,100536.22
2018-07-20T22:36:02.494Z,100535.72
2018-07-20T22:40:57.417Z,100532.34
2018-07-20T22:45:52.281Z,100527.30
2018-07-20T22:50:46.915Z,100527.66
2018-07-20T22:55:41.713Z,100533.59
2018-07-20T23:00:37.310Z,100534.27
2018-07-20T23:05:32.285Z,100533.27
2018-07-20T23:10:27.213Z,100525.52
2018-07-20T23:15:21.926Z,100528.22
2018-07-20T23:20:17.282Z,100529.06
2018-07-20T23:25:12.384Z,100531.62
2018-07-20T23:30:07.432Z,100522.37
2018-07-20T23:35:02.616Z,100525.73
2018-07-20T23:39:57.585Z,100525.77
2018-07-20T23:44:53.021Z,100523.59
2018-07-20T23:49:49.027Z,100516.83
2018-07-20T23:54:44.105Z,100514.01
2018-07-20T23:59:39.094Z,100515.70
